Aviation Digital Data Service (ADDS)

Output produced by METARs form (2158 UTC 16 February 2019)
found at http://www.aviationweather.gov/metar/data/
 
Forecast for: VTPH (HUA HIN , TH)
Text: TAF VTPH 161700Z 1618/1718 00000KT 8000 FEW030
Forecast period: 1800 UTC 16 February 2019 to 0000 UTC 17 February 2019
Forecast type: FROM: standard forecast or significant change
Winds: calm
Visibility: 5 miles (8 km)
Ceiling: at least 12,000 feet AGL
Clouds: few clouds at 3000 feet AGL
Weather: no significant weather forecast for this period
Text: BECMG 1700/1702 23005KT
Forecast period: 0000 to 0500 UTC 17 February 2019
Forecast type: BECOMING: Conditions expected to become as follows by 0200 UTC 17 February 2019
Winds: from the SW (230 degrees) at 6 MPH (5 knots; 2.6 m/s)
Visibility: 5 miles (8 km)
Ceiling: at least 12,000 feet AGL
Clouds: few clouds at 3000 feet AGL
Weather: no significant weather forecast for this period
Text: BECMG 1705/1707 15010KT
Forecast period: 0500 to 1800 UTC 17 February 2019
Forecast type: BECOMING: Conditions expected to become as follows by 0700 UTC 17 February 2019
Winds: from the SSE (150 degrees) at 12 MPH (10 knots; 5.1 m/s)
Visibility: 5 miles (8 km)
Ceiling: at least 12,000 feet AGL
Clouds: few clouds at 3000 feet AGL
Weather: no significant weather forecast for this period